sensor_id;sensor_type;location;lat;lon;timestamp;P1;durP1;ratioP1;P2;durP2;ratioP2
75526;SDS011;64107;49.248;7.006;2022-10-16T00:02:05;2.00;;;1.05;;
75526;SDS011;64107;49.248;7.006;2022-10-16T00:04:31;2.05;;;1.00;;
75526;SDS011;64107;49.248;7.006;2022-10-16T00:06:57;7.63;;;5.15;;
75526;SDS011;64107;49.248;7.006;2022-10-16T00:09:23;3.95;;;1.90;;
75526;SDS011;64107;49.248;7.006;2022-10-16T00:11:49;5.60;;;4.07;;
75526;SDS011;64107;49.248;7.006;2022-10-16T00:14:15;3.15;;;2.40;;
75526;SDS011;64107;49.248;7.006;2022-10-16T00:16:41;2.63;;;1.73;;
75526;SDS011;64107;49.248;7.006;2022-10-16T00:19:08;4.95;;;2.03;;
75526;SDS011;64107;49.248;7.006;2022-10-16T00:21:36;2.92;;;2.40;;
75526;SDS011;64107;49.248;7.006;2022-10-16T00:24:05;4.68;;;2.97;;
75526;SDS011;64107;49.248;7.006;2022-10-16T00:26:33;6.32;;;3.95;;
75526;SDS011;64107;49.248;7.006;2022-10-16T00:29:01;4.30;;;2.28;;
75526;SDS011;64107;49.248;7.006;2022-10-16T00:31:28;4.80;;;2.92;;
75526;SDS011;64107;49.248;7.006;2022-10-16T00:33:54;5.82;;;3.35;;
75526;SDS011;64107;49.248;7.006;2022-10-16T00:36:21;5.57;;;3.22;;
75526;SDS011;64107;49.248;7.006;2022-10-16T00:38:50;6.07;;;2.67;;
75526;SDS011;64107;49.248;7.006;2022-10-16T00:41:20;2.03;;;1.55;;
75526;SDS011;64107;49.248;7.006;2022-10-16T00:43:48;2.67;;;1.58;;
75526;SDS011;64107;49.248;7.006;2022-10-16T00:46:27;4.53;;;2.22;;
75526;SDS011;64107;49.248;7.006;2022-10-16T00:49:02;4.60;;;2.13;;
75526;SDS011;64107;49.248;7.006;2022-10-16T00:54:30;3.85;;;1.70;;
75526;SDS011;64107;49.248;7.006;2022-10-16T00:56:56;2.20;;;1.35;;
75526;SDS011;64107;49.248;7.006;2022-10-16T00:59:30;2.30;;;1.35;;
75526;SDS011;64107;49.248;7.006;2022-10-16T01:02:04;3.22;;;2.00;;
75526;SDS011;64107;49.248;7.006;2022-10-16T01:04:37;2.53;;;1.90;;
75526;SDS011;64107;49.248;7.006;2022-10-16T01:07:27;4.70;;;1.73;;
75526;SDS011;64107;49.248;7.006;2022-10-16T01:15:27;2.78;;;1.73;;
75526;SDS011;64107;49.248;7.006;2022-10-16T01:18:11;5.00;;;1.38;;
75526;SDS011;64107;49.248;7.006;2022-10-16T01:21:05;4.35;;;2.67;;
75526;SDS011;64107;49.248;7.006;2022-10-16T01:27:01;3.97;;;1.50;;
75526;SDS011;64107;49.248;7.006;2022-10-16T01:32:37;3.65;;;1.30;;
75526;SDS011;64107;49.248;7.006;2022-10-16T01:35:05;1.92;;;1.48;;
75526;SDS011;64107;49.248;7.006;2022-10-16T01:37:36;1.75;;;1.02;;
75526;SDS011;64107;49.248;7.006;2022-10-16T01:40:22;6.13;;;1.70;;
75526;SDS011;64107;49.248;7.006;2022-10-16T01:42:52;2.97;;;1.83;;
75526;SDS011;64107;49.248;7.006;2022-10-16T01:45:21;4.35;;;1.40;;
75526;SDS011;64107;49.248;7.006;2022-10-16T01:47:48;2.28;;;1.30;;
75526;SDS011;64107;49.248;7.006;2022-10-16T01:50:15;3.75;;;1.55;;
75526;SDS011;64107;49.248;7.006;2022-10-16T01:52:44;2.60;;;1.48;;
75526;SDS011;64107;49.248;7.006;2022-10-16T01:55:13;4.45;;;1.50;;
75526;SDS011;64107;49.248;7.006;2022-10-16T01:57:41;2.15;;;1.40;;
75526;SDS011;64107;49.248;7.006;2022-10-16T02:00:10;4.75;;;1.83;;
75526;SDS011;64107;49.248;7.006;2022-10-16T02:02:38;3.80;;;1.40;;
75526;SDS011;64107;49.248;7.006;2022-10-16T02:07:42;2.67;;;1.45;;
75526;SDS011;64107;49.248;7.006;2022-10-16T02:10:08;2.85;;;1.48;;
75526;SDS011;64107;49.248;7.006;2022-10-16T02:12:36;3.15;;;1.10;;
75526;SDS011;64107;49.248;7.006;2022-10-16T02:15:05;3.72;;;1.42;;
75526;SDS011;64107;49.248;7.006;2022-10-16T02:17:31;2.28;;;1.35;;
75526;SDS011;64107;49.248;7.006;2022-10-16T02:19:57;1.90;;;1.30;;
75526;SDS011;64107;49.248;7.006;2022-10-16T02:22:30;4.85;;;1.20;;
75526;SDS011;64107;49.248;7.006;2022-10-16T02:30:19;1.45;;;1.02;;
75526;SDS011;64107;49.248;7.006;2022-10-16T02:32:58;2.13;;;1.00;;
75526;SDS011;64107;49.248;7.006;2022-10-16T02:35:25;1.70;;;0.85;;
75526;SDS011;64107;49.248;7.006;2022-10-16T02:37:52;2.45;;;1.75;;
75526;SDS011;64107;49.248;7.006;2022-10-16T02:40:19;3.92;;;1.85;;
75526;SDS011;64107;49.248;7.006;2022-10-16T02:42:49;1.05;;;0.75;;
75526;SDS011;64107;49.248;7.006;2022-10-16T02:45:16;3.42;;;1.48;;
75526;SDS011;64107;49.248;7.006;2022-10-16T02:47:42;5.35;;;2.97;;
75526;SDS011;64107;49.248;7.006;2022-10-16T02:50:08;3.80;;;1.42;;
75526;SDS011;64107;49.248;7.006;2022-10-16T02:52:35;3.65;;;1.70;;
75526;SDS011;64107;49.248;7.006;2022-10-16T02:55:01;3.30;;;1.73;;
75526;SDS011;64107;49.248;7.006;2022-10-16T02:57:27;3.30;;;1.92;;
75526;SDS011;64107;49.248;7.006;2022-10-16T02:59:53;2.10;;;1.42;;
75526;SDS011;64107;49.248;7.006;2022-10-16T03:02:19;2.05;;;1.40;;
75526;SDS011;64107;49.248;7.006;2022-10-16T03:04:45;1.90;;;1.35;;
75526;SDS011;64107;49.248;7.006;2022-10-16T03:07:11;3.88;;;1.77;;
75526;SDS011;64107;49.248;7.006;2022-10-16T03:09:37;2.53;;;1.40;;
75526;SDS011;64107;49.248;7.006;2022-10-16T03:12:03;3.28;;;1.85;;
75526;SDS011;64107;49.248;7.006;2022-10-16T03:14:29;6.35;;;1.58;;
75526;SDS011;64107;49.248;7.006;2022-10-16T03:16:55;2.03;;;1.23;;
75526;SDS011;64107;49.248;7.006;2022-10-16T03:19:21;4.47;;;1.70;;
75526;SDS011;64107;49.248;7.006;2022-10-16T03:21:47;3.20;;;1.33;;
75526;SDS011;64107;49.248;7.006;2022-10-16T03:24:14;3.05;;;1.88;;
75526;SDS011;64107;49.248;7.006;2022-10-16T03:26:40;2.38;;;1.50;;
75526;SDS011;64107;49.248;7.006;2022-10-16T03:29:06;2.35;;;1.55;;
75526;SDS011;64107;49.248;7.006;2022-10-16T03:31:32;2.47;;;1.30;;
75526;SDS011;64107;49.248;7.006;2022-10-16T03:33:58;2.47;;;1.70;;
75526;SDS011;64107;49.248;7.006;2022-10-16T03:36:24;3.83;;;2.55;;
75526;SDS011;64107;49.248;7.006;2022-10-16T03:38:50;6.45;;;3.17;;
75526;SDS011;64107;49.248;7.006;2022-10-16T03:41:16;2.50;;;1.88;;
75526;SDS011;64107;49.248;7.006;2022-10-16T03:43:43;3.65;;;1.70;;
75526;SDS011;64107;49.248;7.006;2022-10-16T03:46:09;2.95;;;1.23;;
75526;SDS011;64107;49.248;7.006;2022-10-16T03:48:35;4.82;;;1.58;;
75526;SDS011;64107;49.248;7.006;2022-10-16T03:51:01;4.00;;;1.58;;
75526;SDS011;64107;49.248;7.006;2022-10-16T03:53:27;5.75;;;1.90;;
75526;SDS011;64107;49.248;7.006;2022-10-16T03:55:53;3.88;;;1.92;;
75526;SDS011;64107;49.248;7.006;2022-10-16T03:58:19;5.18;;;1.98;;
75526;SDS011;64107;49.248;7.006;2022-10-16T04:00:45;9.95;;;6.22;;
75526;SDS011;64107;49.248;7.006;2022-10-16T04:03:14;5.35;;;2.17;;
75526;SDS011;64107;49.248;7.006;2022-10-16T04:05:40;5.13;;;2.35;;
75526;SDS011;64107;49.248;7.006;2022-10-16T04:08:06;4.20;;;2.33;;
75526;SDS011;64107;49.248;7.006;2022-10-16T04:10:32;6.90;;;4.47;;
75526;SDS011;64107;49.248;7.006;2022-10-16T04:12:59;10.82;;;6.32;;
75526;SDS011;64107;49.248;7.006;2022-10-16T04:15:25;5.68;;;2.20;;
75526;SDS011;64107;49.248;7.006;2022-10-16T04:17:51;4.18;;;2.15;;
75526;SDS011;64107;49.248;7.006;2022-10-16T04:20:17;6.07;;;3.92;;
75526;SDS011;64107;49.248;7.006;2022-10-16T04:22:44;7.68;;;2.88;;
75526;SDS011;64107;49.248;7.006;2022-10-16T04:25:10;3.15;;;1.90;;
75526;SDS011;64107;49.248;7.006;2022-10-16T04:27:36;3.90;;;2.30;;
75526;SDS011;64107;49.248;7.006;2022-10-16T04:30:03;4.53;;;2.10;;
75526;SDS011;64107;49.248;7.006;2022-10-16T04:32:30;3.45;;;1.30;;
75526;SDS011;64107;49.248;7.006;2022-10-16T04:34:56;2.50;;;1.40;;
75526;SDS011;64107;49.248;7.006;2022-10-16T04:37:25;4.85;;;2.58;;
75526;SDS011;64107;49.248;7.006;2022-10-16T04:39:52;3.55;;;2.15;;
75526;SDS011;64107;49.248;7.006;2022-10-16T04:42:18;3.65;;;1.52;;
75526;SDS011;64107;49.248;7.006;2022-10-16T04:44:44;6.68;;;2.22;;
75526;SDS011;64107;49.248;7.006;2022-10-16T04:47:11;3.95;;;2.30;;
75526;SDS011;64107;49.248;7.006;2022-10-16T04:49:38;5.35;;;1.85;;
75526;SDS011;64107;49.248;7.006;2022-10-16T04:52:04;4.25;;;1.88;;
75526;SDS011;64107;49.248;7.006;2022-10-16T04:54:30;7.15;;;2.20;;
75526;SDS011;64107;49.248;7.006;2022-10-16T04:56:56;3.20;;;2.10;;
75526;SDS011;64107;49.248;7.006;2022-10-16T04:59:23;5.85;;;2.10;;
75526;SDS011;64107;49.248;7.006;2022-10-16T05:01:49;4.90;;;2.10;;
75526;SDS011;64107;49.248;7.006;2022-10-16T05:04:15;1.92;;;1.48;;
75526;SDS011;64107;49.248;7.006;2022-10-16T05:06:42;2.80;;;1.67;;
75526;SDS011;64107;49.248;7.006;2022-10-16T05:09:08;2.70;;;1.42;;
75526;SDS011;64107;49.248;7.006;2022-10-16T05:11:34;4.95;;;1.63;;
75526;SDS011;64107;49.248;7.006;2022-10-16T05:14:01;2.42;;;1.30;;
75526;SDS011;64107;49.248;7.006;2022-10-16T05:16:27;5.10;;;1.67;;
75526;SDS011;64107;49.248;7.006;2022-10-16T05:18:55;3.45;;;1.80;;
75526;SDS011;64107;49.248;7.006;2022-10-16T05:21:21;3.08;;;1.70;;
75526;SDS011;64107;49.248;7.006;2022-10-16T05:23:47;5.57;;;1.77;;
75526;SDS011;64107;49.248;7.006;2022-10-16T05:26:13;4.50;;;1.85;;
75526;SDS011;64107;49.248;7.006;2022-10-16T05:28:39;5.30;;;1.95;;
75526;SDS011;64107;49.248;7.006;2022-10-16T05:31:06;3.35;;;1.80;;
75526;SDS011;64107;49.248;7.006;2022-10-16T05:33:32;2.67;;;1.40;;
75526;SDS011;64107;49.248;7.006;2022-10-16T05:36:02;5.00;;;1.70;;
75526;SDS011;64107;49.248;7.006;2022-10-16T05:38:32;4.38;;;1.65;;
75526;SDS011;64107;49.248;7.006;2022-10-16T05:40:59;4.15;;;1.85;;
75526;SDS011;64107;49.248;7.006;2022-10-16T05:43:29;7.35;;;2.22;;
75526;SDS011;64107;49.248;7.006;2022-10-16T05:48:31;3.55;;;1.35;;
75526;SDS011;64107;49.248;7.006;2022-10-16T05:51:01;3.85;;;1.60;;
75526;SDS011;64107;49.248;7.006;2022-10-16T05:53:30;3.13;;;1.92;;
75526;SDS011;64107;49.248;7.006;2022-10-16T05:55:58;4.20;;;1.92;;
75526;SDS011;64107;49.248;7.006;2022-10-16T05:58:24;6.07;;;2.30;;
75526;SDS011;64107;49.248;7.006;2022-10-16T06:00:53;6.60;;;2.30;;
75526;SDS011;64107;49.248;7.006;2022-10-16T06:03:39;6.93;;;2.85;;
75526;SDS011;64107;49.248;7.006;2022-10-16T06:06:15;4.07;;;2.20;;
75526;SDS011;64107;49.248;7.006;2022-10-16T06:08:43;9.38;;;3.10;;
75526;SDS011;64107;49.248;7.006;2022-10-16T06:11:11;4.68;;;1.90;;
75526;SDS011;64107;49.248;7.006;2022-10-16T06:13:39;3.95;;;1.83;;
75526;SDS011;64107;49.248;7.006;2022-10-16T06:16:07;5.00;;;2.03;;
75526;SDS011;64107;49.248;7.006;2022-10-16T06:18:35;3.85;;;1.63;;
75526;SDS011;64107;49.248;7.006;2022-10-16T06:21:06;6.97;;;2.38;;
75526;SDS011;64107;49.248;7.006;2022-10-16T06:23:34;7.13;;;2.90;;
75526;SDS011;64107;49.248;7.006;2022-10-16T06:26:04;4.65;;;2.53;;
75526;SDS011;64107;49.248;7.006;2022-10-16T06:28:31;5.25;;;2.03;;
75526;SDS011;64107;49.248;7.006;2022-10-16T06:31:01;9.13;;;2.78;;
75526;SDS011;64107;49.248;7.006;2022-10-16T06:33:27;7.70;;;3.22;;
75526;SDS011;64107;49.248;7.006;2022-10-16T06:35:53;5.55;;;2.33;;
75526;SDS011;64107;49.248;7.006;2022-10-16T06:38:25;4.88;;;2.20;;
75526;SDS011;64107;49.248;7.006;2022-10-16T06:40:51;4.90;;;1.90;;
75526;SDS011;64107;49.248;7.006;2022-10-16T06:43:18;3.72;;;1.73;;
75526;SDS011;64107;49.248;7.006;2022-10-16T06:45:54;4.47;;;2.20;;
75526;SDS011;64107;49.248;7.006;2022-10-16T06:48:21;5.30;;;2.50;;
75526;SDS011;64107;49.248;7.006;2022-10-16T06:50:58;4.28;;;2.70;;
75526;SDS011;64107;49.248;7.006;2022-10-16T06:53:26;4.07;;;2.20;;
75526;SDS011;64107;49.248;7.006;2022-10-16T06:55:54;5.63;;;1.95;;
75526;SDS011;64107;49.248;7.006;2022-10-16T06:58:20;7.60;;;3.20;;
75526;SDS011;64107;49.248;7.006;2022-10-16T07:00:47;3.55;;;2.58;;
75526;SDS011;64107;49.248;7.006;2022-10-16T07:03:13;5.60;;;2.58;;
75526;SDS011;64107;49.248;7.006;2022-10-16T07:05:40;5.28;;;2.58;;
75526;SDS011;64107;49.248;7.006;2022-10-16T07:08:07;5.20;;;2.47;;
75526;SDS011;64107;49.248;7.006;2022-10-16T07:10:33;4.88;;;2.35;;
75526;SDS011;64107;49.248;7.006;2022-10-16T07:12:59;5.70;;;2.53;;
75526;SDS011;64107;49.248;7.006;2022-10-16T07:15:26;7.03;;;2.20;;
75526;SDS011;64107;49.248;7.006;2022-10-16T07:17:52;4.95;;;2.60;;
75526;SDS011;64107;49.248;7.006;2022-10-16T07:20:18;5.70;;;2.58;;
75526;SDS011;64107;49.248;7.006;2022-10-16T07:22:45;4.20;;;3.08;;
75526;SDS011;64107;49.248;7.006;2022-10-16T07:25:11;4.07;;;3.13;;
75526;SDS011;64107;49.248;7.006;2022-10-16T07:27:37;3.70;;;2.58;;
75526;SDS011;64107;49.248;7.006;2022-10-16T07:30:03;5.35;;;2.72;;
75526;SDS011;64107;49.248;7.006;2022-10-16T07:32:30;4.80;;;2.58;;
75526;SDS011;64107;49.248;7.006;2022-10-16T07:34:56;4.13;;;2.42;;
75526;SDS011;64107;49.248;7.006;2022-10-16T07:37:23;7.78;;;2.90;;
75526;SDS011;64107;49.248;7.006;2022-10-16T07:39:49;6.78;;;2.75;;
75526;SDS011;64107;49.248;7.006;2022-10-16T07:42:15;5.13;;;2.80;;
75526;SDS011;64107;49.248;7.006;2022-10-16T07:44:41;5.82;;;3.10;;
75526;SDS011;64107;49.248;7.006;2022-10-16T07:47:07;5.70;;;3.50;;
75526;SDS011;64107;49.248;7.006;2022-10-16T07:49:33;6.38;;;2.97;;
75526;SDS011;64107;49.248;7.006;2022-10-16T07:51:59;5.78;;;2.83;;
75526;SDS011;64107;49.248;7.006;2022-10-16T07:54:25;7.50;;;3.50;;
75526;SDS011;64107;49.248;7.006;2022-10-16T07:56:51;8.98;;;3.38;;
75526;SDS011;64107;49.248;7.006;2022-10-16T07:59:17;3.75;;;2.83;;
75526;SDS011;64107;49.248;7.006;2022-10-16T08:01:43;3.83;;;2.92;;
75526;SDS011;64107;49.248;7.006;2022-10-16T08:04:09;5.90;;;3.42;;
75526;SDS011;64107;49.248;7.006;2022-10-16T08:06:36;3.50;;;2.78;;
75526;SDS011;64107;49.248;7.006;2022-10-16T08:09:03;4.38;;;2.83;;
75526;SDS011;64107;49.248;7.006;2022-10-16T08:11:30;4.53;;;2.75;;
75526;SDS011;64107;49.248;7.006;2022-10-16T08:13:56;4.43;;;2.45;;
75526;SDS011;64107;49.248;7.006;2022-10-16T08:16:22;3.55;;;2.13;;
75526;SDS011;64107;49.248;7.006;2022-10-16T08:18:49;3.65;;;2.10;;
75526;SDS011;64107;49.248;7.006;2022-10-16T08:21:17;4.18;;;2.30;;
75526;SDS011;64107;49.248;7.006;2022-10-16T08:23:44;3.40;;;2.03;;
75526;SDS011;64107;49.248;7.006;2022-10-16T08:26:11;3.30;;;2.58;;
75526;SDS011;64107;49.248;7.006;2022-10-16T08:28:37;3.30;;;2.33;;
75526;SDS011;64107;49.248;7.006;2022-10-16T08:31:04;7.30;;;2.03;;
75526;SDS011;64107;49.248;7.006;2022-10-16T08:33:35;3.65;;;2.20;;
75526;SDS011;64107;49.248;7.006;2022-10-16T08:36:02;3.97;;;2.40;;
75526;SDS011;64107;49.248;7.006;2022-10-16T08:38:29;3.63;;;1.95;;
75526;SDS011;64107;49.248;7.006;2022-10-16T08:41:18;4.28;;;2.20;;
75526;SDS011;64107;49.248;7.006;2022-10-16T08:46:43;4.78;;;2.10;;
75526;SDS011;64107;49.248;7.006;2022-10-16T08:49:13;2.78;;;2.40;;
75526;SDS011;64107;49.248;7.006;2022-10-16T08:51:40;3.85;;;1.80;;
75526;SDS011;64107;49.248;7.006;2022-10-16T08:54:10;6.10;;;2.55;;
75526;SDS011;64107;49.248;7.006;2022-10-16T08:56:42;4.35;;;1.88;;
75526;SDS011;64107;49.248;7.006;2022-10-16T08:59:09;3.28;;;2.00;;
75526;SDS011;64107;49.248;7.006;2022-10-16T09:01:54;2.20;;;1.98;;
75526;SDS011;64107;49.248;7.006;2022-10-16T09:07:16;3.17;;;2.08;;
75526;SDS011;64107;49.248;7.006;2022-10-16T09:10:11;2.70;;;2.38;;
75526;SDS011;64107;49.248;7.006;2022-10-16T09:15:29;4.03;;;2.22;;
75526;SDS011;64107;49.248;7.006;2022-10-16T09:20:42;6.25;;;2.30;;
75526;SDS011;64107;49.248;7.006;2022-10-16T09:23:27;3.90;;;2.08;;
75526;SDS011;64107;49.248;7.006;2022-10-16T09:25:55;3.08;;;2.10;;
75526;SDS011;64107;49.248;7.006;2022-10-16T09:28:22;2.85;;;2.05;;
75526;SDS011;64107;49.248;7.006;2022-10-16T09:30:48;1.67;;;1.58;;
75526;SDS011;64107;49.248;7.006;2022-10-16T09:33:14;3.80;;;1.95;;
75526;SDS011;64107;49.248;7.006;2022-10-16T09:35:43;5.55;;;2.03;;
75526;SDS011;64107;49.248;7.006;2022-10-16T09:38:29;2.13;;;1.63;;
75526;SDS011;64107;49.248;7.006;2022-10-16T09:40:57;4.28;;;2.03;;
75526;SDS011;64107;49.248;7.006;2022-10-16T09:46:30;6.72;;;1.77;;
75526;SDS011;64107;49.248;7.006;2022-10-16T09:49:01;4.38;;;1.50;;
75526;SDS011;64107;49.248;7.006;2022-10-16T09:51:42;3.08;;;1.70;;
75526;SDS011;64107;49.248;7.006;2022-10-16T09:56:36;3.67;;;1.90;;
75526;SDS011;64107;49.248;7.006;2022-10-16T10:01:37;2.33;;;1.73;;
75526;SDS011;64107;49.248;7.006;2022-10-16T10:04:17;3.88;;;1.70;;
75526;SDS011;64107;49.248;7.006;2022-10-16T10:09:30;2.90;;;1.70;;
75526;SDS011;64107;49.248;7.006;2022-10-16T10:12:04;6.15;;;2.20;;
75526;SDS011;64107;49.248;7.006;2022-10-16T10:14:44;6.18;;;1.80;;
75526;SDS011;64107;49.248;7.006;2022-10-16T10:17:14;3.22;;;2.00;;
75526;SDS011;64107;49.248;7.006;2022-10-16T10:19:59;2.45;;;1.90;;
75526;SDS011;64107;49.248;7.006;2022-10-16T10:25:15;3.55;;;2.20;;
75526;SDS011;64107;49.248;7.006;2022-10-16T10:27:48;2.15;;;1.40;;
75526;SDS011;64107;49.248;7.006;2022-10-16T10:30:42;3.90;;;1.75;;
75526;SDS011;64107;49.248;7.006;2022-10-16T10:33:28;3.50;;;1.60;;
75526;SDS011;64107;49.248;7.006;2022-10-16T10:36:20;2.95;;;1.50;;
75526;SDS011;64107;49.248;7.006;2022-10-16T10:39:06;1.30;;;1.08;;
75526;SDS011;64107;49.248;7.006;2022-10-16T10:41:51;2.35;;;1.83;;
75526;SDS011;64107;49.248;7.006;2022-10-16T10:50:21;2.17;;;1.70;;
75526;SDS011;64107;49.248;7.006;2022-10-16T10:52:53;4.50;;;1.67;;
75526;SDS011;64107;49.248;7.006;2022-10-16T11:01:14;3.17;;;1.98;;
75526;SDS011;64107;49.248;7.006;2022-10-16T11:03:59;1.60;;;1.15;;
75526;SDS011;64107;49.248;7.006;2022-10-16T11:07:02;2.03;;;1.40;;
75526;SDS011;64107;49.248;7.006;2022-10-16T11:09:37;4.55;;;2.03;;
75526;SDS011;64107;49.248;7.006;2022-10-16T11:12:19;2.70;;;1.80;;
75526;SDS011;64107;49.248;7.006;2022-10-16T11:17:38;2.65;;;2.05;;
75526;SDS011;64107;49.248;7.006;2022-10-16T11:22:47;2.08;;;1.80;;
75526;SDS011;64107;49.248;7.006;2022-10-16T11:25:32;3.92;;;1.73;;
75526;SDS011;64107;49.248;7.006;2022-10-16T11:28:01;3.95;;;1.95;;
75526;SDS011;64107;49.248;7.006;2022-10-16T11:33:36;3.00;;;2.40;;
75526;SDS011;64107;49.248;7.006;2022-10-16T11:44:00;3.65;;;1.60;;
75526;SDS011;64107;49.248;7.006;2022-10-16T11:46:38;6.25;;;2.05;;
75526;SDS011;64107;49.248;7.006;2022-10-16T11:49:15;3.05;;;2.25;;
75526;SDS011;64107;49.248;7.006;2022-10-16T11:51:54;6.32;;;3.95;;
75526;SDS011;64107;49.248;7.006;2022-10-16T11:54:53;3.97;;;2.80;;
75526;SDS011;64107;49.248;7.006;2022-10-16T11:57:31;2.83;;;1.92;;
75526;SDS011;64107;49.248;7.006;2022-10-16T12:02:54;6.35;;;4.90;;
75526;SDS011;64107;49.248;7.006;2022-10-16T12:08:14;2.65;;;1.73;;
75526;SDS011;64107;49.248;7.006;2022-10-16T12:10:42;5.68;;;2.45;;
75526;SDS011;64107;49.248;7.006;2022-10-16T12:16:05;3.35;;;2.47;;
75526;SDS011;64107;49.248;7.006;2022-10-16T12:18:32;2.70;;;2.00;;
75526;SDS011;64107;49.248;7.006;2022-10-16T12:20:59;3.15;;;2.15;;
75526;SDS011;64107;49.248;7.006;2022-10-16T12:23:30;4.13;;;2.40;;
75526;SDS011;64107;49.248;7.006;2022-10-16T12:26:01;4.50;;;2.78;;
75526;SDS011;64107;49.248;7.006;2022-10-16T12:28:28;6.72;;;2.30;;
75526;SDS011;64107;49.248;7.006;2022-10-16T12:35:50;3.50;;;2.53;;
75526;SDS011;64107;49.248;7.006;2022-10-16T12:38:18;2.20;;;1.95;;
75526;SDS011;64107;49.248;7.006;2022-10-16T12:40:46;3.40;;;2.35;;
75526;SDS011;64107;49.248;7.006;2022-10-16T12:43:26;3.80;;;2.42;;
75526;SDS011;64107;49.248;7.006;2022-10-16T12:46:41;3.58;;;2.47;;
75526;SDS011;64107;49.248;7.006;2022-10-16T12:49:04;3.25;;;2.00;;
75526;SDS011;64107;49.248;7.006;2022-10-16T12:51:37;6.60;;;2.20;;
75526;SDS011;64107;49.248;7.006;2022-10-16T12:54:10;5.75;;;2.03;;
75526;SDS011;64107;49.248;7.006;2022-10-16T13:07:59;3.65;;;2.10;;
75526;SDS011;64107;49.248;7.006;2022-10-16T13:30:28;4.47;;;2.10;;
75526;SDS011;64107;49.248;7.006;2022-10-16T13:33:01;3.63;;;1.70;;
75526;SDS011;64107;49.248;7.006;2022-10-16T13:35:30;3.47;;;1.70;;
75526;SDS011;64107;49.248;7.006;2022-10-16T13:38:11;2.35;;;2.00;;
75526;SDS011;64107;49.248;7.006;2022-10-16T13:43:14;7.80;;;2.30;;
75526;SDS011;64107;49.248;7.006;2022-10-16T13:45:51;2.80;;;1.88;;
75526;SDS011;64107;49.248;7.006;2022-10-16T13:48:19;2.83;;;1.77;;
75526;SDS011;64107;49.248;7.006;2022-10-16T13:50:45;3.33;;;2.22;;
75526;SDS011;64107;49.248;7.006;2022-10-16T13:53:14;2.90;;;2.38;;
75526;SDS011;64107;49.248;7.006;2022-10-16T13:55:40;6.85;;;2.83;;
75526;SDS011;64107;49.248;7.006;2022-10-16T13:58:13;3.78;;;2.40;;
75526;SDS011;64107;49.248;7.006;2022-10-16T14:00:39;3.42;;;1.88;;
75526;SDS011;64107;49.248;7.006;2022-10-16T14:03:17;6.40;;;2.22;;
75526;SDS011;64107;49.248;7.006;2022-10-16T14:05:48;2.45;;;2.10;;
75526;SDS011;64107;49.248;7.006;2022-10-16T14:08:15;3.70;;;2.47;;
75526;SDS011;64107;49.248;7.006;2022-10-16T14:10:41;3.13;;;2.15;;
75526;SDS011;64107;49.248;7.006;2022-10-16T14:13:12;3.30;;;2.63;;
75526;SDS011;64107;49.248;7.006;2022-10-16T14:15:40;10.07;;;2.70;;
75526;SDS011;64107;49.248;7.006;2022-10-16T14:18:17;3.38;;;2.03;;
75526;SDS011;64107;49.248;7.006;2022-10-16T14:20:48;4.78;;;2.25;;
75526;SDS011;64107;49.248;7.006;2022-10-16T14:23:22;3.20;;;2.35;;
75526;SDS011;64107;49.248;7.006;2022-10-16T14:26:05;5.10;;;2.38;;
75526;SDS011;64107;49.248;7.006;2022-10-16T14:28:40;4.13;;;2.33;;
75526;SDS011;64107;49.248;7.006;2022-10-16T14:33:45;4.90;;;2.03;;
75526;SDS011;64107;49.248;7.006;2022-10-16T14:36:12;4.70;;;2.72;;
75526;SDS011;64107;49.248;7.006;2022-10-16T14:38:40;3.20;;;2.50;;
75526;SDS011;64107;49.248;7.006;2022-10-16T14:41:07;4.93;;;3.00;;
75526;SDS011;64107;49.248;7.006;2022-10-16T14:43:37;7.13;;;3.28;;
75526;SDS011;64107;49.248;7.006;2022-10-16T14:46:16;8.25;;;3.30;;
75526;SDS011;64107;49.248;7.006;2022-10-16T14:48:47;4.13;;;2.83;;
75526;SDS011;64107;49.248;7.006;2022-10-16T14:51:16;6.25;;;4.13;;
75526;SDS011;64107;49.248;7.006;2022-10-16T14:53:43;3.65;;;2.83;;
75526;SDS011;64107;49.248;7.006;2022-10-16T14:56:53;7.22;;;3.97;;
75526;SDS011;64107;49.248;7.006;2022-10-16T14:59:00;5.55;;;2.83;;
75526;SDS011;64107;49.248;7.006;2022-10-16T15:01:26;11.18;;;5.28;;
75526;SDS011;64107;49.248;7.006;2022-10-16T15:03:52;5.03;;;3.15;;
75526;SDS011;64107;49.248;7.006;2022-10-16T15:06:20;5.63;;;3.20;;
75526;SDS011;64107;49.248;7.006;2022-10-16T15:08:47;4.22;;;3.30;;
75526;SDS011;64107;49.248;7.006;2022-10-16T15:11:14;6.85;;;4.45;;
75526;SDS011;64107;49.248;7.006;2022-10-16T15:13:41;11.77;;;4.00;;
75526;SDS011;64107;49.248;7.006;2022-10-16T15:16:10;4.32;;;2.80;;
75526;SDS011;64107;49.248;7.006;2022-10-16T15:18:38;4.20;;;2.75;;
75526;SDS011;64107;49.248;7.006;2022-10-16T15:21:04;4.07;;;2.90;;
75526;SDS011;64107;49.248;7.006;2022-10-16T15:23:31;5.20;;;3.28;;
75526;SDS011;64107;49.248;7.006;2022-10-16T15:25:57;5.38;;;3.30;;
75526;SDS011;64107;49.248;7.006;2022-10-16T15:28:24;6.03;;;3.28;;
75526;SDS011;64107;49.248;7.006;2022-10-16T15:30:51;5.70;;;3.60;;
75526;SDS011;64107;49.248;7.006;2022-10-16T15:33:20;5.47;;;3.60;;
75526;SDS011;64107;49.248;7.006;2022-10-16T15:35:52;4.68;;;3.95;;
75526;SDS011;64107;49.248;7.006;2022-10-16T15:38:19;6.43;;;3.95;;
75526;SDS011;64107;49.248;7.006;2022-10-16T15:40:46;5.15;;;3.00;;
75526;SDS011;64107;49.248;7.006;2022-10-16T15:43:13;5.10;;;3.45;;
75526;SDS011;64107;49.248;7.006;2022-10-16T15:45:39;5.65;;;3.38;;
75526;SDS011;64107;49.248;7.006;2022-10-16T15:48:05;7.75;;;4.18;;
75526;SDS011;64107;49.248;7.006;2022-10-16T15:50:34;11.05;;;7.90;;
75526;SDS011;64107;49.248;7.006;2022-10-16T15:53:02;6.43;;;2.95;;
75526;SDS011;64107;49.248;7.006;2022-10-16T15:55:28;4.30;;;3.40;;
75526;SDS011;64107;49.248;7.006;2022-10-16T15:57:55;7.97;;;3.47;;
75526;SDS011;64107;49.248;7.006;2022-10-16T16:00:21;8.88;;;3.63;;
75526;SDS011;64107;49.248;7.006;2022-10-16T16:02:51;7.10;;;4.15;;
75526;SDS011;64107;49.248;7.006;2022-10-16T16:05:18;9.23;;;5.20;;
75526;SDS011;64107;49.248;7.006;2022-10-16T16:07:45;4.32;;;3.10;;
75526;SDS011;64107;49.248;7.006;2022-10-16T16:10:11;6.30;;;3.60;;
75526;SDS011;64107;49.248;7.006;2022-10-16T16:12:38;6.70;;;4.05;;
75526;SDS011;64107;49.248;7.006;2022-10-16T16:15:05;7.25;;;4.40;;
75526;SDS011;64107;49.248;7.006;2022-10-16T16:17:32;7.63;;;4.43;;
75526;SDS011;64107;49.248;7.006;2022-10-16T16:19:59;7.57;;;4.13;;
75526;SDS011;64107;49.248;7.006;2022-10-16T16:22:25;9.85;;;5.15;;
75526;SDS011;64107;49.248;7.006;2022-10-16T16:24:52;8.43;;;5.00;;
75526;SDS011;64107;49.248;7.006;2022-10-16T16:27:18;12.73;;;5.15;;
75526;SDS011;64107;49.248;7.006;2022-10-16T16:29:45;9.02;;;5.47;;
75526;SDS011;64107;49.248;7.006;2022-10-16T16:32:11;12.60;;;5.47;;
75526;SDS011;64107;49.248;7.006;2022-10-16T16:34:37;10.90;;;5.93;;
75526;SDS011;64107;49.248;7.006;2022-10-16T16:37:03;15.05;;;8.25;;
75526;SDS011;64107;49.248;7.006;2022-10-16T16:39:29;10.55;;;7.90;;
75526;SDS011;64107;49.248;7.006;2022-10-16T16:41:56;16.90;;;8.40;;
75526;SDS011;64107;49.248;7.006;2022-10-16T16:44:26;15.27;;;8.15;;
75526;SDS011;64107;49.248;7.006;2022-10-16T16:46:52;14.82;;;7.35;;
75526;SDS011;64107;49.248;7.006;2022-10-16T16:49:19;11.25;;;7.38;;
75526;SDS011;64107;49.248;7.006;2022-10-16T16:51:45;12.18;;;8.23;;
75526;SDS011;64107;49.248;7.006;2022-10-16T16:54:11;15.48;;;9.25;;
75526;SDS011;64107;49.248;7.006;2022-10-16T16:56:38;19.27;;;11.93;;
75526;SDS011;64107;49.248;7.006;2022-10-16T16:59:10;19.02;;;9.40;;
75526;SDS011;64107;49.248;7.006;2022-10-16T17:01:38;18.98;;;10.98;;
75526;SDS011;64107;49.248;7.006;2022-10-16T17:04:05;15.15;;;10.48;;
75526;SDS011;64107;49.248;7.006;2022-10-16T17:06:31;16.55;;;10.35;;
75526;SDS011;64107;49.248;7.006;2022-10-16T17:08:57;12.25;;;8.70;;